Time;durP1;ratioP1;P1;durP2;ratioP2;P2;SDS_P1;SDS_P2;PMS_P1;PMS_P2;Temp;Humidity;BMP_temperature;BMP_pressure;BME280_temperature;BME280_humidity;BME280_pressure;Samples;Min_cycle;Max_cycle;Signal;HPM_P1;HPM_P2
2022/06/19 00:00:24;;;;;;;1.57;1.00;;;17.90;99.90;;;;;;4958056;28;20473;-82
2022/06/19 00:02:52;;;;;;;0.80;0.80;;;17.90;99.90;;;;;;4957012;28;20466;-82
2022/06/19 00:05:19;;;;;;;1.67;1.07;;;17.80;99.90;;;;;;4959456;28;21054;-83
2022/06/19 00:07:46;;;;;;;0.70;0.70;;;17.80;99.90;;;;;;4958030;28;20555;-82
2022/06/19 00:10:14;;;;;;;1.67;1.40;;;17.80;99.90;;;;;;4956804;28;20473;-81
2022/06/19 00:12:41;;;;;;;1.40;1.10;;;17.80;99.90;;;;;;4952682;28;20541;-83
2022/06/19 00:15:09;;;;;;;2.37;0.90;;;17.80;99.90;;;;;;4953238;28;20476;-82
2022/06/19 00:17:37;;;;;;;1.53;1.03;;;17.90;99.90;;;;;;4952215;28;20475;-83
2022/06/19 00:20:07;;;;;;;1.00;1.00;;;17.80;99.90;;;;;;4958280;28;20467;-82
2022/06/19 00:22:34;;;;;;;1.60;0.80;;;17.70;99.90;;;;;;4961838;28;20528;-82
2022/06/19 00:25:01;;;;;;;0.70;0.70;;;17.60;99.90;;;;;;4962114;28;20536;-83
2022/06/19 00:27:28;;;;;;;0.90;0.80;;;17.60;99.90;;;;;;4963014;28;20476;-82
2022/06/19 00:29:55;;;;;;;0.80;0.80;;;17.60;99.90;;;;;;4960448;28;20470;-83
2022/06/19 00:32:25;;;;;;;1.13;1.03;;;17.60;99.90;;;;;;4961728;28;21107;-84
2022/06/19 00:34:52;;;;;;;0.90;0.90;;;17.50;99.90;;;;;;4957068;28;20499;-84
2022/06/19 00:37:21;;;;;;;0.93;0.60;;;17.60;99.90;;;;;;4963061;28;20564;-83
2022/06/19 00:39:48;;;;;;;1.93;1.33;;;17.60;99.90;;;;;;4964507;28;20472;-83
2022/06/19 00:42:17;;;;;;;1.30;1.20;;;17.40;99.90;;;;;;4956096;28;20471;-84
2022/06/19 00:44:46;;;;;;;0.70;0.70;;;17.30;99.90;;;;;;4961023;28;20468;-83
2022/06/19 00:47:18;;;;;;;1.07;0.97;;;17.30;99.90;;;;;;4959436;28;20942;-83
2022/06/19 00:49:50;;;;;;;1.63;1.53;;;17.40;99.90;;;;;;4963454;28;21364;-82
2022/06/19 00:52:21;;;;;;;2.60;1.30;;;17.40;99.90;;;;;;4962371;28;20487;-83
2022/06/19 00:54:52;;;;;;;0.97;0.93;;;17.30;99.90;;;;;;4959370;28;21205;-83
2022/06/19 00:57:20;;;;;;;1.27;1.17;;;17.30;99.90;;;;;;4961487;28;20480;-83
2022/06/19 00:59:51;;;;;;;1.43;0.90;;;17.20;99.90;;;;;;4961485;28;21227;-82
2022/06/19 01:02:18;;;;;;;2.10;1.23;;;17.30;99.90;;;;;;4960508;28;20556;-83
2022/06/19 01:04:50;;;;;;;1.10;1.10;;;17.20;99.90;;;;;;4962590;28;20496;-83
2022/06/19 01:07:18;;;;;;;2.20;0.87;;;17.30;99.90;;;;;;4963064;28;20763;-83
2022/06/19 01:09:45;;;;;;;1.83;1.50;;;17.20;99.90;;;;;;4958579;28;20480;-83
2022/06/19 01:12:14;;;;;;;0.90;0.80;;;17.10;99.90;;;;;;4961284;28;20471;-83
2022/06/19 01:14:44;;;;;;;1.23;1.13;;;17.10;99.90;;;;;;4958329;28;20522;-82
2022/06/19 01:17:13;;;;;;;4.60;0.80;;;17.00;99.90;;;;;;4959887;28;20475;-83
2022/06/19 01:19:43;;;;;;;1.83;1.50;;;17.00;99.90;;;;;;4960880;28;20460;-84
2022/06/19 01:22:21;;;;;;;1.27;1.17;;;17.00;99.90;;;;;;4962408;28;20475;-83
2022/06/19 01:25:06;;;;;;;4.07;1.97;;;16.90;99.90;;;;;;4957068;28;20478;-84
2022/06/19 01:30:22;;;;;;;4.90;1.30;;;16.90;99.90;;;;;;4957666;28;20496;-82
2022/06/19 01:32:51;;;;;;;1.80;1.10;;;16.90;99.90;;;;;;4962874;28;20475;-83
2022/06/19 01:35:21;;;;;;;1.30;1.20;;;16.90;99.90;;;;;;4960822;28;20513;-83
2022/06/19 01:37:50;;;;;;;1.27;1.17;;;16.90;99.90;;;;;;4968182;28;21234;-83
2022/06/19 01:40:22;;;;;;;1.40;1.30;;;16.90;99.90;;;;;;4977995;28;20457;-83
2022/06/19 01:42:49;;;;;;;1.73;1.53;;;16.90;99.90;;;;;;4963595;28;21136;-83
2022/06/19 01:45:17;;;;;;;0.80;0.80;;;16.80;99.90;;;;;;4960030;28;20456;-83
2022/06/19 01:47:44;;;;;;;1.03;0.93;;;16.70;99.90;;;;;;4955936;28;20587;-82
2022/06/19 01:50:16;;;;;;;1.70;1.60;;;16.70;99.90;;;;;;4961056;28;20962;-83
2022/06/19 01:52:44;;;;;;;1.10;1.00;;;16.70;99.90;;;;;;4960662;28;20566;-83
2022/06/19 01:55:14;;;;;;;1.63;0.90;;;16.80;99.90;;;;;;4961735;28;21051;-82
2022/06/19 01:57:45;;;;;;;2.40;1.23;;;16.80;99.90;;;;;;4962875;28;20496;-82
2022/06/19 02:00:16;;;;;;;1.37;1.27;;;16.80;99.90;;;;;;4958229;28;20555;-83
2022/06/19 02:02:46;;;;;;;1.87;1.63;;;16.60;99.90;;;;;;4958332;28;20483;-83
2022/06/19 02:05:13;;;;;;;0.60;0.60;;;16.70;99.90;;;;;;4961507;28;20530;-84
2022/06/19 02:07:40;;;;;;;1.53;1.37;;;16.80;99.90;;;;;;4959863;28;20464;-83
2022/06/19 02:10:08;;;;;;;1.10;1.00;;;16.80;99.90;;;;;;4960434;28;20518;-83
2022/06/19 02:12:36;;;;;;;1.70;1.60;;;16.80;99.90;;;;;;4961513;28;20534;-82
2022/06/19 02:15:09;;;;;;;1.23;0.93;;;16.70;99.90;;;;;;4955147;28;21046;-83
2022/06/19 02:17:39;;;;;;;1.77;1.10;;;16.80;99.90;;;;;;4956596;28;20479;-83
2022/06/19 02:20:07;;;;;;;2.03;1.80;;;16.70;99.90;;;;;;4959825;28;20491;-82
2022/06/19 02:22:34;;;;;;;1.27;1.20;;;16.60;99.90;;;;;;4955911;28;20472;-83
2022/06/19 02:25:02;;;;;;;5.30;1.27;;;16.60;99.90;;;;;;4961876;28;20465;-82
2022/06/19 02:27:32;;;;;;;1.40;1.20;;;16.50;99.90;;;;;;4962879;28;20603;-83
2022/06/19 02:30:01;;;;;;;1.80;1.70;;;16.40;99.90;;;;;;4960721;28;20546;-83
2022/06/19 02:32:35;;;;;;;2.07;1.73;;;16.30;99.90;;;;;;4960080;28;20518;-83
2022/06/19 02:35:03;;;;;;;1.63;1.00;;;16.30;99.90;;;;;;4960379;28;20479;-83
2022/06/19 02:37:38;;;;;;;1.80;1.70;;;16.20;99.90;;;;;;4961929;28;20464;-82
2022/06/19 02:40:15;;;;;;;1.47;1.30;;;16.20;99.90;;;;;;4958924;28;20471;-82
2022/06/19 02:42:44;;;;;;;1.50;1.40;;;16.10;99.90;;;;;;4964825;28;20472;-83
2022/06/19 02:45:14;;;;;;;1.20;1.10;;;16.10;99.90;;;;;;4955913;28;20472;-83
2022/06/19 02:47:43;;;;;;;5.90;1.90;;;16.10;99.90;;;;;;4960125;28;20591;-82
2022/06/19 02:50:15;;;;;;;1.13;1.03;;;16.00;99.90;;;;;;4957026;28;21252;-82
2022/06/19 02:52:42;;;;;;;3.50;1.43;;;16.00;99.90;;;;;;4957964;28;20526;-82
2022/06/19 02:55:11;;;;;;;2.27;2.07;;;16.00;99.90;;;;;;4963237;28;20842;-83
2022/06/19 02:57:39;;;;;;;1.37;1.27;;;16.10;99.90;;;;;;4959828;28;20539;-82
2022/06/19 03:00:08;;;;;;;1.80;1.70;;;16.10;99.90;;;;;;4957184;28;20499;-83
2022/06/19 03:02:35;;;;;;;11.60;1.83;;;16.00;99.90;;;;;;4957463;28;20956;-84
2022/06/19 03:05:06;;;;;;;1.67;1.57;;;15.90;99.90;;;;;;4960358;28;20459;-83
2022/06/19 03:07:34;;;;;;;1.30;1.20;;;15.90;99.90;;;;;;4958230;28;21004;-82
2022/06/19 03:10:01;;;;;;;1.33;1.23;;;15.80;99.90;;;;;;4958694;28;20472;-83
2022/06/19 03:12:28;;;;;;;4.00;1.33;;;15.70;99.90;;;;;;4957782;28;21373;-82
2022/06/19 03:14:55;;;;;;;2.87;2.30;;;15.70;99.90;;;;;;4961467;28;21171;-82
2022/06/19 03:17:23;;;;;;;1.40;1.30;;;15.60;99.90;;;;;;4955170;28;20561;-82
2022/06/19 03:19:50;;;;;;;1.30;1.20;;;15.60;99.90;;;;;;4958029;28;20472;-82
2022/06/19 03:22:19;;;;;;;2.70;1.47;;;15.60;99.90;;;;;;4959056;28;20582;-83
2022/06/19 03:24:46;;;;;;;2.40;1.50;;;15.60;99.90;;;;;;4955515;28;20469;-82
2022/06/19 03:27:14;;;;;;;1.27;1.17;;;15.50;99.90;;;;;;4958394;28;20993;-82
2022/06/19 03:29:41;;;;;;;1.30;1.20;;;15.50;99.90;;;;;;4956403;28;20562;-83
2022/06/19 03:32:11;;;;;;;3.43;1.47;;;15.60;99.90;;;;;;4957709;28;21000;-84
2022/06/19 03:34:38;;;;;;;1.53;1.43;;;15.60;99.90;;;;;;4957980;28;20565;-82
2022/06/19 03:37:06;;;;;;;1.13;1.00;;;15.60;99.90;;;;;;4958612;28;20498;-82
2022/06/19 03:39:35;;;;;;;4.10;1.20;;;15.70;99.90;;;;;;4958559;28;21012;-83
2022/06/19 03:42:02;;;;;;;2.30;1.20;;;15.80;99.90;;;;;;4959415;28;20484;-81
2022/06/19 03:44:29;;;;;;;1.97;1.83;;;16.00;99.90;;;;;;4958120;28;20472;-83
2022/06/19 03:46:56;;;;;;;1.47;1.30;;;15.90;99.90;;;;;;4957120;28;20492;-81
2022/06/19 03:49:23;;;;;;;2.83;1.93;;;15.90;99.90;;;;;;4957984;28;20879;-82
2022/06/19 03:51:50;;;;;;;1.90;1.57;;;16.00;99.90;;;;;;4958795;28;20501;-82
2022/06/19 03:54:17;;;;;;;1.40;1.30;;;16.10;99.90;;;;;;4957490;28;20862;-82
2022/06/19 03:56:46;;;;;;;2.13;1.57;;;16.20;99.90;;;;;;4957669;28;20545;-82
2022/06/19 03:59:13;;;;;;;1.10;1.00;;;16.20;99.90;;;;;;4959235;28;20488;-82
2022/06/19 04:01:41;;;;;;;2.80;2.60;;;16.30;99.90;;;;;;4955899;28;20476;-82
2022/06/19 04:04:09;;;;;;;1.90;1.20;;;16.40;99.90;;;;;;4955005;28;20819;-82
2022/06/19 04:06:39;;;;;;;1.60;1.17;;;16.70;99.90;;;;;;4958948;28;20492;-82
2022/06/19 04:09:08;;;;;;;1.60;1.50;;;16.80;99.90;;;;;;4958832;28;20464;-82
2022/06/19 04:11:35;;;;;;;1.40;1.30;;;16.90;99.90;;;;;;4957772;28;20453;-83
2022/06/19 04:14:04;;;;;;;0.93;0.93;;;16.90;99.90;;;;;;4957045;28;20473;-81
2022/06/19 04:16:34;;;;;;;2.87;2.10;;;16.90;99.90;;;;;;4957572;28;20468;-82
2022/06/19 04:19:03;;;;;;;1.33;1.23;;;17.00;99.90;;;;;;4956531;28;20469;-82
2022/06/19 04:21:31;;;;;;;2.77;1.93;;;17.10;99.90;;;;;;4957667;28;21045;-82
2022/06/19 04:24:00;;;;;;;2.20;1.20;;;17.20;99.90;;;;;;4958148;28;20835;-82
2022/06/19 04:26:29;;;;;;;1.80;1.70;;;17.20;99.90;;;;;;4961987;28;20488;-81
2022/06/19 04:28:57;;;;;;;1.40;0.93;;;17.40;99.90;;;;;;4971994;28;20471;-82
2022/06/19 04:31:26;;;;;;;2.23;1.70;;;17.80;99.90;;;;;;4962313;28;20476;-83
2022/06/19 04:33:54;;;;;;;3.30;1.93;;;17.90;99.90;;;;;;4962143;28;20464;-83
2022/06/19 04:36:25;;;;;;;5.07;1.80;;;18.00;99.90;;;;;;4958409;28;20572;-82
2022/06/19 04:38:54;;;;;;;1.77;1.67;;;17.90;99.90;;;;;;4960321;28;20465;-83
2022/06/19 04:41:24;;;;;;;2.80;1.27;;;18.10;99.90;;;;;;4956657;28;21212;-83
2022/06/19 04:43:51;;;;;;;3.23;1.60;;;18.00;99.90;;;;;;4956990;28;20461;-82
2022/06/19 04:46:19;;;;;;;1.80;1.23;;;18.00;99.90;;;;;;4960731;28;20756;-83
2022/06/19 04:48:49;;;;;;;1.47;1.20;;;18.00;99.90;;;;;;4957344;28;21176;-83
2022/06/19 04:51:16;;;;;;;5.47;1.77;;;18.10;99.90;;;;;;4957266;28;20522;-84
2022/06/19 04:53:44;;;;;;;0.90;0.80;;;18.10;99.90;;;;;;4957825;28;20464;-82
2022/06/19 04:56:13;;;;;;;1.10;1.10;;;18.20;99.90;;;;;;4957919;28;20481;-84
2022/06/19 04:58:40;;;;;;;1.10;1.03;;;18.30;99.90;;;;;;4957223;28;20542;-83
2022/06/19 05:01:10;;;;;;;1.00;0.90;;;18.40;99.90;;;;;;4955630;28;20546;-83
2022/06/19 05:03:38;;;;;;;1.23;1.00;;;18.50;99.90;;;;;;4956447;28;21136;-84
2022/06/19 05:06:06;;;;;;;1.57;1.00;;;18.70;99.90;;;;;;4959403;28;20871;-83
2022/06/19 05:08:33;;;;;;;1.40;1.00;;;18.90;99.90;;;;;;4960073;28;20484;-91
2022/06/19 05:11:01;;;;;;;0.80;0.80;;;18.90;99.90;;;;;;4963840;28;21186;-88
2022/06/19 05:13:28;;;;;;;1.80;1.50;;;19.00;99.90;;;;;;4962605;28;20458;-88
2022/06/19 05:16:04;;;;;;;1.20;1.10;;;19.20;99.90;;;;;;4959556;28;20475;-88
2022/06/19 05:18:32;;;;;;;1.53;1.43;;;19.50;99.90;;;;;;4963574;28;20461;-87
2022/06/19 05:21:01;;;;;;;1.20;1.10;;;19.60;99.90;;;;;;4961765;28;20466;-86
2022/06/19 05:23:30;;;;;;;1.73;1.47;;;19.70;99.90;;;;;;4963243;28;21223;-87
2022/06/19 05:26:03;;;;;;;1.73;1.00;;;19.80;99.90;;;;;;4960736;28;20477;-87
2022/06/19 05:28:31;;;;;;;1.00;1.00;;;19.80;99.90;;;;;;4964905;28;20487;-88
2022/06/19 05:30:59;;;;;;;0.80;0.80;;;19.90;99.90;;;;;;4960282;28;20552;-87
2022/06/19 05:33:27;;;;;;;1.40;1.30;;;20.10;99.90;;;;;;4965649;28;20998;-86
2022/06/19 05:35:54;;;;;;;1.67;1.10;;;20.00;99.90;;;;;;4956144;28;20973;-87
2022/06/19 05:38:21;;;;;;;1.10;1.10;;;20.00;99.90;;;;;;4957400;28;20500;-87
2022/06/19 05:40:52;;;;;;;1.97;1.07;;;20.20;99.90;;;;;;4958270;28;20893;-87
2022/06/19 05:43:20;;;;;;;1.20;1.10;;;20.30;99.90;;;;;;4958565;28;20472;-87
2022/06/19 05:45:53;;;;;;;1.13;1.10;;;20.30;99.50;;;;;;4961624;28;20519;-87
2022/06/19 05:48:21;;;;;;;1.30;1.20;;;20.20;99.40;;;;;;4957275;28;21117;-87
2022/06/19 05:50:57;;;;;;;1.73;1.63;;;20.20;99.20;;;;;;4961469;28;20511;-88
2022/06/19 05:53:25;;;;;;;3.30;0.80;;;20.40;99.60;;;;;;4959448;28;20467;-88
2022/06/19 05:55:53;;;;;;;1.73;1.47;;;20.60;99.10;;;;;;4959289;28;20462;-88
2022/06/19 05:58:20;;;;;;;1.17;1.07;;;20.70;98.80;;;;;;4961393;28;20489;-87
2022/06/19 06:00:47;;;;;;;0.87;0.87;;;21.00;98.30;;;;;;4959979;28;20473;-87
2022/06/19 06:03:16;;;;;;;8.33;1.23;;;21.10;97.90;;;;;;4955275;28;20478;-86
2022/06/19 06:05:44;;;;;;;1.00;0.90;;;21.30;98.10;;;;;;4959611;28;21002;-86
2022/06/19 06:08:11;;;;;;;1.33;1.20;;;21.30;97.90;;;;;;4960192;28;20502;-87
2022/06/19 06:10:38;;;;;;;1.17;1.00;;;21.60;98.00;;;;;;4961155;28;20526;-87
2022/06/19 06:13:07;;;;;;;5.03;1.00;;;21.70;97.20;;;;;;4962721;28;20525;-87
2022/06/19 06:15:34;;;;;;;2.13;1.30;;;21.70;96.40;;;;;;4958157;28;20511;-87
2022/06/19 06:18:02;;;;;;;2.03;1.93;;;21.80;96.30;;;;;;4957801;28;20894;-88
2022/06/19 06:20:30;;;;;;;1.37;1.07;;;22.10;96.40;;;;;;4959312;28;20808;-87
2022/06/19 06:22:57;;;;;;;1.10;1.00;;;22.40;96.30;;;;;;4957942;28;20472;-87
2022/06/19 06:25:24;;;;;;;1.23;1.23;;;22.60;95.30;;;;;;4958303;28;20473;-87
2022/06/19 06:27:52;;;;;;;1.40;1.23;;;22.70;94.70;;;;;;4961274;28;20563;-87
2022/06/19 06:30:20;;;;;;;1.93;1.20;;;22.80;94.40;;;;;;4964992;28;20464;-87
2022/06/19 06:32:47;;;;;;;3.40;1.23;;;23.00;94.70;;;;;;4956393;28;21130;-87
2022/06/19 06:35:14;;;;;;;1.17;1.00;;;23.20;93.40;;;;;;4958595;28;20480;-87
2022/06/19 06:37:41;;;;;;;2.57;1.60;;;23.40;93.30;;;;;;4958976;28;20472;-87
2022/06/19 06:40:10;;;;;;;1.43;0.90;;;23.50;92.90;;;;;;4957313;28;20465;-87
2022/06/19 06:42:38;;;;;;;1.93;1.10;;;23.80;92.30;;;;;;4960610;28;20464;-89
2022/06/19 06:45:07;;;;;;;6.03;0.83;;;23.80;93.50;;;;;;4961281;28;20517;-87
2022/06/19 06:47:35;;;;;;;1.70;1.60;;;24.10;92.60;;;;;;4960923;28;20483;-88
2022/06/19 06:50:02;;;;;;;2.37;1.00;;;24.30;91.50;;;;;;4959825;28;20468;-87
2022/06/19 06:52:29;;;;;;;1.63;1.13;;;24.60;92.60;;;;;;4960630;28;21055;-88
2022/06/19 06:54:56;;;;;;;1.23;1.07;;;24.60;91.70;;;;;;4957612;28;21232;-88
2022/06/19 06:57:23;;;;;;;4.20;1.00;;;24.60;90.10;;;;;;4956276;28;21718;-87
2022/06/19 06:59:50;;;;;;;1.50;1.10;;;24.50;90.50;;;;;;4954199;28;20473;-88
2022/06/19 07:02:17;;;;;;;1.33;1.23;;;24.80;90.90;;;;;;4958060;28;20478;-87
2022/06/19 07:04:45;;;;;;;0.90;0.90;;;25.00;89.20;;;;;;4960465;28;20480;-88
2022/06/19 07:07:12;;;;;;;4.20;1.37;;;25.20;90.10;;;;;;4958632;28;20558;-88
2022/06/19 07:09:39;;;;;;;1.23;1.13;;;25.40;90.40;;;;;;4956686;28;20473;-88
2022/06/19 07:12:07;;;;;;;2.90;1.90;;;25.50;90.00;;;;;;4955103;28;20476;-88
2022/06/19 07:14:34;;;;;;;1.40;1.27;;;25.90;89.20;;;;;;4952010;28;20476;-88
2022/06/19 07:17:01;;;;;;;1.90;1.70;;;26.00;88.50;;;;;;4952252;28;20530;-88
2022/06/19 07:19:28;;;;;;;1.93;1.10;;;26.20;88.90;;;;;;4956084;28;20464;-88
2022/06/19 07:21:57;;;;;;;1.80;1.70;;;26.20;86.70;;;;;;4958725;28;20469;-88
2022/06/19 07:24:25;;;;;;;1.40;1.30;;;25.90;86.40;;;;;;4980085;28;20477;-88
2022/06/19 07:26:52;;;;;;;1.67;1.30;;;26.20;84.10;;;;;;4974004;28;20457;-88
2022/06/19 07:29:20;;;;;;;1.00;1.00;;;26.30;82.40;;;;;;4979733;28;20504;-87
2022/06/19 07:31:47;;;;;;;1.73;1.50;;;26.30;82.40;;;;;;4967293;28;20468;-87
2022/06/19 07:34:14;;;;;;;3.90;1.00;;;26.40;81.90;;;;;;4961212;28;20471;-85
2022/06/19 07:36:41;;;;;;;2.17;1.20;;;26.60;84.20;;;;;;4958877;28;21032;-87
2022/06/19 07:39:10;;;;;;;1.50;1.30;;;26.60;82.50;;;;;;4961057;28;20633;-86
2022/06/19 07:41:37;;;;;;;2.33;1.43;;;26.80;84.30;;;;;;4958829;28;20464;-86
2022/06/19 07:44:04;;;;;;;2.10;1.37;;;26.90;80.00;;;;;;4958206;28;20453;-86
2022/06/19 07:46:31;;;;;;;1.47;1.37;;;27.00;81.60;;;;;;4956449;28;21131;-87
2022/06/19 07:51:42;;;;;;;2.10;1.67;;;27.20;79.70;;;;;;4956892;28;20464;-86
2022/06/19 07:54:10;;;;;;;2.20;1.30;;;27.30;81.50;;;;;;4955760;28;20485;-87
2022/06/19 07:56:37;;;;;;;1.50;1.13;;;27.40;80.70;;;;;;4951864;28;20475;-86
2022/06/19 07:59:04;;;;;;;1.30;1.20;;;27.40;84.00;;;;;;4959369;28;20589;-87
2022/06/19 08:01:32;;;;;;;1.50;1.40;;;27.50;83.20;;;;;;4955444;28;20685;-87
2022/06/19 08:03:59;;;;;;;3.80;1.77;;;27.70;80.20;;;;;;4953119;28;20465;-87
2022/06/19 08:06:26;;;;;;;4.57;1.50;;;27.50;83.60;;;;;;4962604;28;20452;-86
2022/06/19 08:08:53;;;;;;;1.40;1.30;;;27.50;82.20;;;;;;4963849;28;20492;-86
2022/06/19 08:11:21;;;;;;;1.50;1.40;;;27.50;81.20;;;;;;4956681;28;20462;-87
2022/06/19 08:13:48;;;;;;;2.43;1.73;;;28.00;78.10;;;;;;4960168;28;20476;-87
2022/06/19 08:16:15;;;;;;;2.53;1.70;;;28.20;75.50;;;;;;4954766;28;20976;-87
2022/06/19 08:18:42;;;;;;;1.60;1.50;;;28.00;74.40;;;;;;4965003;28;20472;-87
2022/06/19 08:21:09;;;;;;;2.50;1.27;;;27.90;76.60;;;;;;4955190;28;20469;-87
2022/06/19 08:23:36;;;;;;;1.63;0.93;;;27.80;76.60;;;;;;4967034;28;20471;-86
2022/06/19 08:26:04;;;;;;;4.23;1.80;;;27.80;78.90;;;;;;4954344;28;20827;-88
2022/06/19 08:28:45;;;;;;;1.67;1.33;;;27.90;77.90;;;;;;4956513;28;20522;-87
2022/06/19 08:31:12;;;;;;;1.80;1.70;;;28.00;78.90;;;;;;4952460;28;20568;-87
2022/06/19 08:33:39;;;;;;;1.87;1.63;;;28.10;77.60;;;;;;4959455;28;20456;-87
2022/06/19 08:36:10;;;;;;;2.20;1.63;;;28.10;78.00;;;;;;4957001;28;20460;-87
2022/06/19 08:38:41;;;;;;;1.30;1.20;;;28.40;82.10;;;;;;4951431;28;21295;-88
2022/06/19 08:41:41;;;;;;;1.83;1.53;;;28.60;76.80;;;;;;4955821;28;21058;-88
2022/06/19 08:44:50;;;;;;;2.30;1.43;;;28.70;77.80;;;;;;4955578;28;20467;-88
2022/06/19 08:47:29;;;;;;;1.60;1.13;;;28.20;75.40;;;;;;4953324;28;20464;-87
2022/06/19 08:50:06;;;;;;;1.73;1.63;;;28.20;76.50;;;;;;4961965;28;20983;-88
2022/06/19 08:52:42;;;;;;;5.03;1.83;;;28.10;79.00;;;;;;4955697;28;20468;-87
2022/06/19 08:55:24;;;;;;;7.13;1.33;;;28.40;78.30;;;;;;4958852;28;20463;-88
2022/06/19 08:58:02;;;;;;;1.53;1.07;;;28.70;73.60;;;;;;4954810;28;20500;-87
2022/06/19 09:00:37;;;;;;;7.67;2.40;;;29.30;76.20;;;;;;4960401;28;20475;-88
2022/06/19 09:03:13;;;;;;;2.13;1.23;;;29.40;79.10;;;;;;4956221;28;20464;-88
2022/06/19 09:05:47;;;;;;;3.20;2.93;;;29.30;75.60;;;;;;4962578;28;20475;-88
2022/06/19 09:08:56;;;;;;;8.03;2.30;;;29.20;77.30;;;;;;4963869;28;20502;-88
2022/06/19 09:11:40;;;;;;;1.27;1.17;;;28.70;72.70;;;;;;4938222;28;20468;-88
2022/06/19 09:14:26;;;;;;;1.70;1.60;;;28.70;75.90;;;;;;4959794;28;20445;-88
2022/06/19 09:17:01;;;;;;;1.27;1.17;;;28.90;75.70;;;;;;4955339;28;20555;-83
2022/06/19 09:19:43;;;;;;;1.87;1.77;;;28.90;73.50;;;;;;4957217;28;20472;-88
2022/06/19 09:22:37;;;;;;;2.70;2.10;;;29.20;77.20;;;;;;4960498;28;20468;-88
2022/06/19 09:25:14;;;;;;;2.10;1.73;;;29.30;77.40;;;;;;4943134;28;20463;-87
2022/06/19 09:27:47;;;;;;;1.77;1.43;;;29.10;75.10;;;;;;4957670;28;20732;-88
2022/06/19 09:30:19;;;;;;;3.03;1.30;;;29.50;77.60;;;;;;4958103;28;20521;-88
2022/06/19 09:32:52;;;;;;;2.10;1.90;;;29.80;72.70;;;;;;4957616;28;20469;-87
2022/06/19 09:35:24;;;;;;;1.53;1.43;;;29.60;71.40;;;;;;4962406;28;20464;-88
2022/06/19 09:37:58;;;;;;;2.40;1.67;;;29.90;73.60;;;;;;4962042;28;20539;-88
2022/06/19 09:40:30;;;;;;;1.83;1.43;;;29.90;69.50;;;;;;4963287;28;20473;-88
2022/06/19 09:43:03;;;;;;;1.87;1.77;;;30.10;72.10;;;;;;4962450;28;20468;-88
2022/06/19 09:45:36;;;;;;;1.67;1.57;;;30.40;70.60;;;;;;4959933;28;20472;-88
2022/06/19 09:48:11;;;;;;;1.60;1.50;;;30.40;70.20;;;;;;4961629;28;20868;-88
2022/06/19 09:50:43;;;;;;;3.20;2.03;;;30.40;63.90;;;;;;4961007;28;20467;-88
2022/06/19 09:53:15;;;;;;;1.40;1.20;;;30.30;71.90;;;;;;4958769;28;20472;-88
2022/06/19 09:55:46;;;;;;;1.70;1.43;;;30.50;68.30;;;;;;4957659;28;20540;-88
2022/06/19 09:58:17;;;;;;;2.40;1.30;;;30.60;71.10;;;;;;4960349;28;20554;-88
2022/06/19 10:00:48;;;;;;;2.00;1.90;;;30.70;69.70;;;;;;4959855;28;20805;-88
2022/06/19 10:03:23;;;;;;;1.90;1.80;;;30.40;72.10;;;;;;4955643;28;20519;-88
2022/06/19 10:05:55;;;;;;;1.90;1.80;;;30.40;70.10;;;;;;4957507;28;21068;-88
2022/06/19 10:08:26;;;;;;;2.57;1.63;;;30.30;69.00;;;;;;4963533;28;20491;-88
2022/06/19 10:10:58;;;;;;;1.87;1.77;;;30.10;71.70;;;;;;4963731;28;20526;-88
2022/06/19 10:13:34;;;;;;;1.97;1.50;;;30.40;71.30;;;;;;4954550;28;20472;-88
2022/06/19 10:16:05;;;;;;;1.80;1.70;;;30.80;69.70;;;;;;4965972;28;20477;-88
2022/06/19 10:18:38;;;;;;;1.63;1.53;;;30.40;72.50;;;;;;4985346;28;20476;-88
2022/06/19 10:21:10;;;;;;;1.67;1.60;;;30.50;71.20;;;;;;4983083;28;20465;-89
2022/06/19 10:24:01;;;;;;;2.50;1.43;;;30.70;69.20;;;;;;4978376;28;21242;-88
2022/06/19 10:26:40;;;;;;;2.20;1.57;;;30.50;70.90;;;;;;4961771;28;20552;-88
2022/06/19 10:29:21;;;;;;;3.17;2.03;;;30.80;67.50;;;;;;4962810;28;20483;-88
2022/06/19 10:32:07;;;;;;;2.63;1.70;;;31.00;65.90;;;;;;4961350;28;21539;-88
2022/06/19 10:34:49;;;;;;;3.73;1.93;;;31.20;65.70;;;;;;4953850;28;20532;-88
2022/06/19 10:37:27;;;;;;;1.77;1.63;;;31.30;69.10;;;;;;4960105;28;21028;-89
2022/06/19 10:40:07;;;;;;;6.23;2.07;;;31.40;66.30;;;;;;4958989;28;20472;-88
2022/06/19 10:42:44;;;;;;;1.80;1.70;;;31.50;65.70;;;;;;4963077;28;20495;-88
2022/06/19 10:45:25;;;;;;;1.80;1.70;;;31.40;68.30;;;;;;4958710;28;20460;-88
2022/06/19 10:48:18;;;;;;;2.03;1.93;;;31.50;66.20;;;;;;4958487;28;20475;-88
2022/06/19 10:50:51;;;;;;;1.50;1.40;;;31.70;63.70;;;;;;4950723;28;20465;-89
2022/06/19 10:53:33;;;;;;;1.40;1.30;;;31.90;67.00;;;;;;4952311;28;20472;-88
2022/06/19 10:56:06;;;;;;;2.37;2.27;;;32.10;63.70;;;;;;4952246;28;20473;-88
2022/06/19 10:58:33;;;;;;;1.83;1.73;;;32.40;64.30;;;;;;4957531;28;20500;-89
2022/06/19 11:01:03;;;;;;;3.13;1.80;;;32.30;68.10;;;;;;4959609;28;20457;-89
2022/06/19 11:06:28;;;;;;;5.13;1.43;;;32.50;65.20;;;;;;4958263;28;20448;-89
2022/06/19 11:09:00;;;;;;;2.30;1.57;;;32.50;62.40;;;;;;4957053;28;20489;-89
2022/06/19 11:11:28;;;;;;;2.50;1.10;;;32.70;62.10;;;;;;4958559;28;20467;-88
2022/06/19 11:14:12;;;;;;;1.43;1.33;;;33.00;61.50;;;;;;4961232;28;20835;-89
2022/06/19 11:16:56;;;;;;;2.27;2.17;;;33.20;64.20;;;;;;4959380;28;20962;-88
2022/06/19 11:19:35;;;;;;;1.70;1.60;;;33.20;63.70;;;;;;4953973;28;20508;-89
2022/06/19 11:22:07;;;;;;;3.37;1.80;;;32.70;62.70;;;;;;4959502;28;20470;-88
2022/06/19 11:24:37;;;;;;;1.53;1.43;;;33.10;66.50;;;;;;4959033;28;20514;-89
2022/06/19 11:27:05;;;;;;;0.93;0.93;;;33.30;60.90;;;;;;4956768;28;20542;-89
2022/06/19 11:29:33;;;;;;;3.63;1.67;;;33.40;57.40;;;;;;4957528;28;20497;-87
2022/06/19 11:32:09;;;;;;;1.57;1.47;;;33.30;58.40;;;;;;4955847;28;20483;-89
2022/06/19 11:34:44;;;;;;;2.50;1.43;;;33.30;56.90;;;;;;4955388;28;20474;-88
2022/06/19 11:37:17;;;;;;;4.10;2.20;;;33.40;59.50;;;;;;4956173;28;20456;-88
2022/06/19 11:39:47;;;;;;;1.70;1.30;;;33.20;55.30;;;;;;4960129;28;20869;-88
2022/06/19 11:42:33;;;;;;;2.10;1.43;;;33.40;56.80;;;;;;4957245;28;20464;-88
2022/06/19 11:45:02;;;;;;;1.50;1.40;;;33.50;58.90;;;;;;4955488;28;20461;-88
2022/06/19 11:47:37;;;;;;;1.57;1.47;;;33.50;63.10;;;;;;4958537;28;20477;-88
2022/06/19 11:50:17;;;;;;;3.10;1.87;;;33.60;57.20;;;;;;4957544;28;21050;-88
2022/06/19 11:52:52;;;;;;;2.67;1.50;;;33.70;55.40;;;;;;4956794;28;20472;-88
2022/06/19 11:55:27;;;;;;;1.63;1.53;;;33.60;61.00;;;;;;4953725;28;20491;-88
2022/06/19 11:57:57;;;;;;;2.90;1.30;;;33.90;59.80;;;;;;4955840;28;20526;-88
2022/06/19 12:00:28;;;;;;;2.00;1.63;;;33.90;55.00;;;;;;4953219;28;20478;-90
2022/06/19 12:02:58;;;;;;;3.60;1.70;;;34.00;54.90;;;;;;4955530;28;20465;-88
2022/06/19 12:05:29;;;;;;;3.70;1.63;;;34.10;53.10;;;;;;4954364;28;20469;-88
2022/06/19 12:08:08;;;;;;;0.90;0.87;;;34.00;52.40;;;;;;4959763;28;20468;-88
2022/06/19 12:10:40;;;;;;;6.93;2.07;;;34.10;52.90;;;;;;4956584;28;20484;-88
2022/06/19 12:13:21;;;;;;;4.50;1.00;;;34.00;53.60;;;;;;4956766;28;20878;-89
2022/06/19 12:15:59;;;;;;;1.30;1.20;;;34.10;53.00;;;;;;4956374;28;20512;-89
2022/06/19 12:18:27;;;;;;;1.30;1.20;;;34.30;53.50;;;;;;4952977;28;20555;-89
2022/06/19 12:20:59;;;;;;;4.07;1.60;;;34.00;52.40;;;;;;4956187;28;20522;-88
2022/06/19 12:23:32;;;;;;;5.63;1.67;;;34.00;52.90;;;;;;4954849;28;20507;-89
2022/06/19 12:26:03;;;;;;;3.57;1.67;;;33.80;52.20;;;;;;4956689;28;20505;-89
2022/06/19 12:28:38;;;;;;;2.67;1.60;;;33.90;50.00;;;;;;4955944;28;21011;-89
2022/06/19 12:31:09;;;;;;;3.47;1.20;;;33.90;51.10;;;;;;4958753;28;20466;-87
2022/06/19 12:33:41;;;;;;;4.33;1.40;;;34.00;52.00;;;;;;4951761;28;20522;-87
2022/06/19 12:36:14;;;;;;;1.73;1.27;;;34.10;52.30;;;;;;4954737;28;20529;-88
2022/06/19 12:38:43;;;;;;;3.73;1.43;;;34.20;50.40;;;;;;4954402;28;20477;-88
2022/06/19 12:41:30;;;;;;;1.33;1.23;;;33.90;50.90;;;;;;4958356;28;20911;-88
2022/06/19 12:44:20;;;;;;;1.00;0.90;;;33.80;49.30;;;;;;4960433;28;20465;-90
2022/06/19 12:46:58;;;;;;;2.70;1.00;;;33.80;51.90;;;;;;4956612;28;20573;-90
2022/06/19 12:49:46;;;;;;;4.13;1.50;;;33.90;51.00;;;;;;4960639;28;20492;-90
2022/06/19 12:52:21;;;;;;;2.43;1.50;;;33.90;52.20;;;;;;4955582;28;20485;-91
2022/06/19 12:55:21;;;;;;;1.87;1.40;;;33.90;51.30;;;;;;4959286;28;20448;-90
2022/06/19 12:58:09;;;;;;;5.00;1.37;;;33.80;53.60;;;;;;4958658;28;20499;-90
2022/06/19 13:00:42;;;;;;;1.20;1.10;;;33.90;56.20;;;;;;4954267;28;20455;-90
2022/06/19 13:03:36;;;;;;;3.40;1.93;;;34.00;54.00;;;;;;4955890;28;20812;-90
2022/06/19 13:06:15;;;;;;;3.77;1.37;;;34.00;52.10;;;;;;4955816;28;20519;-90
2022/06/19 13:08:52;;;;;;;2.87;1.30;;;34.30;52.30;;;;;;4967397;28;20514;-90
2022/06/19 13:11:32;;;;;;;4.67;1.33;;;34.20;52.80;;;;;;4979520;28;20465;-90
2022/06/19 13:14:21;;;;;;;1.73;1.50;;;34.40;53.40;;;;;;4978923;28;20521;-89
2022/06/19 13:16:56;;;;;;;2.20;1.03;;;34.40;52.30;;;;;;4967708;28;20567;-90